Acme, Michigan
Current Conditions -  °F | °C
As of 9:53 PM on Friday 19 Dec 2014 (Local Time) from KTVC Reporting Station
Overcast Overcast  
Wind Chill: -2°   Ceiling: 2000
Heat Index: -2°   Visibility: 10mi
Dew Point: -7°   Wind: 3mph
Humidity: 72%   Direction: 220°SW
Pressure: 30.28"   Gusts: NA
Location:  44.77°N, 85.5°W
Report Text: KTVC 200253Z AUTO 22003KT 10SM OVC020 M02/M07 A3028 RMK AO2 SLP265 T10221067 58002
Loading
Personal Weather Stations






























Interactive Weather Map New forecast layout! Learn more

10-Day Weather Forecast

Advertisements
Track Severe Weather on mobile